Time;durP1;ratioP1;P1;durP2;ratioP2;P2;SDS_P1;SDS_P2;PMS_P1;PMS_P2;Temp;Humidity;BMP_temperature;BMP_pressure;BME280_temperature;BME280_humidity;BME280_pressure;Samples;Min_cycle;Max_cycle;Signal;HPM_P1;HPM_P2
2021/11/21 00:01:21;;;;;;;1.60;1.30;;;8.40;98.20;;;;;;4886768;29;20846;-75
2021/11/21 00:03:48;;;;;;;1.60;1.30;;;8.40;98.20;;;;;;4894538;29;21090;-75
2021/11/21 00:06:16;;;;;;;1.67;1.30;;;8.40;98.20;;;;;;4889801;29;20487;-75
2021/11/21 00:08:44;;;;;;;1.60;1.30;;;8.30;98.20;;;;;;4908130;29;20469;-75
2021/11/21 00:11:12;;;;;;;1.70;1.30;;;8.30;98.20;;;;;;4885053;29;20509;-76
2021/11/21 00:13:38;;;;;;;1.60;1.20;;;8.30;98.20;;;;;;4895025;29;20465;-76
2021/11/21 00:16:06;;;;;;;1.63;1.30;;;8.30;98.20;;;;;;4886211;29;20849;-76
2021/11/21 00:18:34;;;;;;;1.60;1.20;;;8.30;98.20;;;;;;4909450;29;20472;-75
2021/11/21 00:21:01;;;;;;;2.57;1.50;;;8.30;98.20;;;;;;4888668;29;20571;-75
2021/11/21 00:23:28;;;;;;;1.60;1.30;;;8.30;98.20;;;;;;4908096;29;20574;-75
2021/11/21 00:25:56;;;;;;;1.70;1.40;;;8.30;98.20;;;;;;4886442;29;20473;-75
2021/11/21 00:28:23;;;;;;;1.63;1.20;;;8.30;98.20;;;;;;4897642;29;20492;-75
2021/11/21 00:30:51;;;;;;;1.60;1.20;;;8.30;98.20;;;;;;4887276;29;20573;-76
2021/11/21 00:33:18;;;;;;;1.70;1.47;;;8.30;98.20;;;;;;4896909;29;20475;-74
2021/11/21 00:35:45;;;;;;;1.60;1.20;;;8.30;98.20;;;;;;4893798;29;20917;-76
2021/11/21 00:38:12;;;;;;;1.60;1.23;;;8.40;98.20;;;;;;4883470;29;20510;-75
2021/11/21 00:40:39;;;;;;;1.60;1.20;;;8.40;98.20;;;;;;4893177;29;20471;-76
2021/11/21 00:43:07;;;;;;;1.60;1.20;;;8.40;98.20;;;;;;4884402;29;21032;-74
2021/11/21 00:45:34;;;;;;;1.60;1.20;;;8.40;98.20;;;;;;4897097;29;20491;-75
2021/11/21 00:48:02;;;;;;;1.83;1.63;;;8.40;98.20;;;;;;4902449;29;20587;-75
2021/11/21 00:50:31;;;;;;;1.60;1.20;;;8.40;98.20;;;;;;4898009;29;20568;-75
2021/11/21 00:53:02;;;;;;;1.70;1.50;;;8.40;98.20;;;;;;4903488;29;20516;-75
2021/11/21 00:55:35;;;;;;;1.60;1.30;;;8.40;98.20;;;;;;4896661;29;20481;-75
2021/11/21 00:58:03;;;;;;;1.60;1.20;;;8.50;98.20;;;;;;4881839;29;20989;-75
2021/11/21 01:00:32;;;;;;;1.60;1.20;;;8.50;98.20;;;;;;4894992;29;20488;-75
2021/11/21 01:02:59;;;;;;;1.60;1.20;;;8.50;98.20;;;;;;4882474;29;20484;-76
2021/11/21 01:05:26;;;;;;;1.60;1.30;;;8.50;98.20;;;;;;4895180;29;20482;-75
2021/11/21 01:07:53;;;;;;;1.60;1.30;;;8.50;98.20;;;;;;4884276;29;20507;-75
2021/11/21 01:10:21;;;;;;;1.60;1.20;;;8.40;98.20;;;;;;4896002;29;20481;-75
2021/11/21 01:12:49;;;;;;;1.60;1.20;;;8.40;98.20;;;;;;4902847;29;21713;-75
2021/11/21 01:15:19;;;;;;;1.60;1.20;;;8.40;98.20;;;;;;4892975;29;20504;-75
2021/11/21 01:17:48;;;;;;;1.60;1.30;;;8.40;98.20;;;;;;4882598;29;20956;-75
2021/11/21 01:20:16;;;;;;;1.60;1.20;;;8.40;98.20;;;;;;4897279;29;20878;-75
2021/11/21 01:22:45;;;;;;;1.60;1.20;;;8.40;98.20;;;;;;4886997;29;20514;-75
2021/11/21 01:25:13;;;;;;;1.60;1.30;;;8.40;98.20;;;;;;4897268;29;20871;-75
2021/11/21 01:27:41;;;;;;;1.60;1.30;;;8.40;98.20;;;;;;4910270;29;20491;-75
2021/11/21 01:30:10;;;;;;;1.60;1.20;;;8.30;98.20;;;;;;4904514;29;20464;-75
2021/11/21 01:32:37;;;;;;;1.60;1.27;;;8.30;98.20;;;;;;4899851;29;20500;-76
2021/11/21 01:35:06;;;;;;;1.60;1.30;;;8.30;98.20;;;;;;4905297;29;20464;-75
2021/11/21 01:37:33;;;;;;;1.60;1.20;;;8.30;98.20;;;;;;4899426;29;20504;-75
2021/11/21 01:40:00;;;;;;;1.60;1.30;;;8.30;98.20;;;;;;4909288;29;21072;-75
2021/11/21 01:42:27;;;;;;;1.60;1.20;;;8.30;98.20;;;;;;4911852;29;20499;-75
2021/11/21 01:44:54;;;;;;;2.90;2.70;;;8.30;98.20;;;;;;4911956;29;20475;-75
2021/11/21 01:47:21;;;;;;;1.60;1.23;;;8.30;98.20;;;;;;4899649;29;20967;-76
2021/11/21 01:49:47;;;;;;;1.60;1.30;;;8.30;98.20;;;;;;4910287;29;20476;-75
2021/11/21 01:52:16;;;;;;;1.60;1.20;;;8.30;98.20;;;;;;4900529;29;20492;-75
2021/11/21 01:54:43;;;;;;;1.60;1.20;;;8.30;98.20;;;;;;4908844;29;20855;-75
2021/11/21 01:57:12;;;;;;;1.60;1.20;;;8.30;98.20;;;;;;4901625;29;20500;-75
2021/11/21 01:59:38;;;;;;;1.60;1.23;;;8.30;98.20;;;;;;4906836;29;20472;-75
2021/11/21 02:02:05;;;;;;;1.60;1.20;;;8.30;98.20;;;;;;4910633;29;20498;-75
2021/11/21 02:04:32;;;;;;;1.60;1.30;;;8.30;98.20;;;;;;4915522;29;20493;-75
2021/11/21 02:06:59;;;;;;;1.60;1.30;;;8.30;98.20;;;;;;4900030;29;21155;-75
2021/11/21 02:09:28;;;;;;;1.60;1.30;;;8.30;98.20;;;;;;4907787;29;20985;-76
2021/11/21 02:11:55;;;;;;;1.60;1.20;;;8.30;98.20;;;;;;4904828;29;20488;-75
2021/11/21 02:14:22;;;;;;;1.60;1.30;;;8.30;98.20;;;;;;4918649;29;20996;-75
2021/11/21 02:16:49;;;;;;;1.60;1.20;;;8.30;98.20;;;;;;4898976;29;20637;-74
2021/11/21 02:19:18;;;;;;;1.60;1.20;;;8.30;98.20;;;;;;4907597;29;20566;-74
2021/11/21 02:21:46;;;;;;;1.60;1.20;;;8.30;98.20;;;;;;4900099;29;20539;-75
2021/11/21 02:24:13;;;;;;;1.60;1.20;;;8.30;98.20;;;;;;4909535;29;21151;-75
2021/11/21 02:26:40;;;;;;;1.60;1.20;;;8.30;98.20;;;;;;4909295;29;20504;-75
2021/11/21 02:29:07;;;;;;;1.60;1.20;;;8.30;98.20;;;;;;4917794;29;20472;-75
2021/11/21 02:31:34;;;;;;;1.60;1.30;;;8.30;98.20;;;;;;4909764;29;20515;-75
2021/11/21 02:34:01;;;;;;;1.60;1.20;;;8.30;98.20;;;;;;4916031;29;20490;-75
2021/11/21 02:36:27;;;;;;;1.60;1.23;;;8.30;98.20;;;;;;4901860;29;20649;-75
2021/11/21 02:38:56;;;;;;;1.60;1.23;;;8.30;98.20;;;;;;4908983;29;20975;-75
2021/11/21 02:41:22;;;;;;;1.60;1.30;;;8.30;98.20;;;;;;4903808;29;20523;-75
2021/11/21 02:43:49;;;;;;;1.60;1.23;;;8.30;98.20;;;;;;4909867;29;20877;-75
2021/11/21 02:46:17;;;;;;;1.60;1.20;;;8.30;98.20;;;;;;4907652;29;20893;-75
2021/11/21 02:48:44;;;;;;;1.60;1.30;;;8.30;98.20;;;;;;4923674;29;20476;-75
2021/11/21 02:51:14;;;;;;;1.60;1.20;;;8.30;98.20;;;;;;4903680;29;21108;-74
2021/11/21 02:53:43;;;;;;;1.63;1.40;;;8.30;98.20;;;;;;4904856;29;20475;-73
2021/11/21 02:56:13;;;;;;;1.60;1.20;;;8.30;98.20;;;;;;4896503;29;20480;-76
2021/11/21 02:58:40;;;;;;;1.60;1.23;;;8.30;98.20;;;;;;4920400;29;20496;-75
2021/11/21 03:01:09;;;;;;;1.60;1.30;;;8.30;98.20;;;;;;4901945;29;20476;-75
2021/11/21 03:03:36;;;;;;;1.60;1.30;;;8.30;98.20;;;;;;4923046;29;20488;-76
2021/11/21 03:06:03;;;;;;;1.60;1.27;;;8.30;98.20;;;;;;4902772;29;20475;-76
2021/11/21 03:08:30;;;;;;;1.60;1.20;;;8.30;98.20;;;;;;4912334;29;20496;-77
2021/11/21 03:10:58;;;;;;;1.60;1.30;;;8.30;98.20;;;;;;4903501;29;20472;-76
2021/11/21 03:13:26;;;;;;;1.60;1.20;;;8.30;98.20;;;;;;4909351;29;20464;-76
2021/11/21 03:15:53;;;;;;;1.60;1.20;;;8.30;98.20;;;;;;4899425;29;20477;-76
2021/11/21 03:18:21;;;;;;;1.60;1.20;;;8.30;98.20;;;;;;4923258;29;20487;-76
2021/11/21 03:20:47;;;;;;;1.60;1.20;;;8.30;98.20;;;;;;4902150;29;20838;-75
2021/11/21 03:23:14;;;;;;;1.60;1.30;;;8.30;98.20;;;;;;4925304;29;20469;-76
2021/11/21 03:25:41;;;;;;;1.60;1.30;;;8.30;98.20;;;;;;4905629;29;20469;-76
2021/11/21 03:28:08;;;;;;;1.60;1.30;;;8.30;98.20;;;;;;4901126;29;20492;-76
2021/11/21 03:30:36;;;;;;;1.60;1.20;;;8.30;98.20;;;;;;4910327;29;21005;-76
2021/11/21 03:33:03;;;;;;;1.60;1.20;;;8.30;98.20;;;;;;4901319;29;20496;-76
2021/11/21 03:35:31;;;;;;;1.60;1.20;;;8.30;98.20;;;;;;4909532;29;20884;-76
2021/11/21 03:37:58;;;;;;;1.60;1.20;;;8.30;98.20;;;;;;4900417;29;20492;-76
2021/11/21 03:40:25;;;;;;;1.60;1.20;;;8.30;98.20;;;;;;4913085;29;20519;-76
2021/11/21 03:42:51;;;;;;;1.70;1.40;;;8.30;98.20;;;;;;4901304;29;20502;-76
2021/11/21 03:45:18;;;;;;;1.60;1.13;;;8.30;98.20;;;;;;4912580;29;20493;-75
2021/11/21 03:47:48;;;;;;;1.60;1.20;;;8.30;98.20;;;;;;4900871;29;20492;-76
2021/11/21 03:50:16;;;;;;;1.60;1.20;;;8.30;98.20;;;;;;4910561;29;20472;-76
2021/11/21 03:52:44;;;;;;;1.60;1.30;;;8.30;98.20;;;;;;4900696;29;20544;-76
2021/11/21 03:55:13;;;;;;;1.60;1.30;;;8.30;98.20;;;;;;4910399;29;20465;-76
2021/11/21 03:57:40;;;;;;;1.60;1.30;;;8.30;98.20;;;;;;4910690;29;20507;-77
2021/11/21 04:00:11;;;;;;;1.60;1.30;;;8.30;98.20;;;;;;4912996;29;20461;-76
2021/11/21 04:02:38;;;;;;;1.60;1.20;;;8.30;98.20;;;;;;4901032;29;20499;-76
2021/11/21 04:05:06;;;;;;;1.60;1.20;;;8.30;98.20;;;;;;4908181;29;20521;-77
2021/11/21 04:07:34;;;;;;;1.60;1.20;;;8.30;98.20;;;;;;4900231;29;20555;-77
2021/11/21 04:10:01;;;;;;;1.60;1.20;;;8.30;98.20;;;;;;4910949;29;20476;-76
2021/11/21 04:12:28;;;;;;;1.67;1.30;;;8.30;98.20;;;;;;4901181;29;20501;-76
2021/11/21 04:14:55;;;;;;;1.60;1.20;;;8.30;98.20;;;;;;4907191;29;20492;-76
2021/11/21 04:17:22;;;;;;;1.60;1.20;;;8.30;98.20;;;;;;4900769;29;20556;-74
2021/11/21 04:19:49;;;;;;;1.60;1.20;;;8.30;98.20;;;;;;4904721;29;20469;-76
2021/11/21 04:22:17;;;;;;;1.60;1.30;;;8.20;98.20;;;;;;4912485;29;20490;-76
2021/11/21 04:24:44;;;;;;;1.60;1.20;;;8.20;98.20;;;;;;4908999;29;20491;-76
2021/11/21 04:27:12;;;;;;;1.60;1.20;;;8.20;98.20;;;;;;4899349;29;20675;-76
2021/11/21 04:29:39;;;;;;;1.60;1.27;;;8.20;98.20;;;;;;4913777;29;20473;-77
2021/11/21 04:32:06;;;;;;;1.60;1.30;;;8.20;98.20;;;;;;4901814;29;20492;-77
2021/11/21 04:34:33;;;;;;;1.60;1.20;;;8.20;98.20;;;;;;4909866;29;20471;-77
2021/11/21 04:37:00;;;;;;;1.60;1.20;;;8.20;98.20;;;;;;4901770;29;20499;-76
2021/11/21 04:39:29;;;;;;;1.60;1.30;;;8.20;98.20;;;;;;4912123;29;20461;-75
2021/11/21 04:41:56;;;;;;;1.60;1.30;;;8.20;98.20;;;;;;4901320;29;20548;-77
2021/11/21 04:44:24;;;;;;;1.60;1.20;;;8.20;98.20;;;;;;4910878;29;20492;-77
2021/11/21 04:46:51;;;;;;;1.60;1.20;;;8.20;98.20;;;;;;4909919;29;20981;-77
2021/11/21 04:49:17;;;;;;;1.60;1.23;;;8.20;98.20;;;;;;4916817;29;20475;-77
2021/11/21 04:51:44;;;;;;;1.63;1.30;;;8.20;98.20;;;;;;4907764;29;21008;-77
2021/11/21 04:54:15;;;;;;;1.60;1.20;;;8.20;98.20;;;;;;4917880;29;21164;-76
2021/11/21 04:56:45;;;;;;;1.60;1.20;;;8.20;98.20;;;;;;4900475;29;20578;-75
2021/11/21 04:59:12;;;;;;;1.60;1.20;;;8.20;98.20;;;;;;4916163;29;20541;-75
2021/11/21 05:01:39;;;;;;;1.60;1.30;;;8.20;98.20;;;;;;4901964;29;20500;-77
2021/11/21 05:04:06;;;;;;;1.60;1.20;;;8.20;98.20;;;;;;4908287;29;21001;-77
2021/11/21 05:06:33;;;;;;;1.60;1.20;;;8.20;98.20;;;;;;4898605;29;20500;-76
2021/11/21 05:09:01;;;;;;;1.60;1.30;;;8.10;98.20;;;;;;4907855;29;20591;-77
2021/11/21 05:11:27;;;;;;;1.67;1.30;;;8.10;98.20;;;;;;4901650;29;20484;-76
2021/11/21 05:13:56;;;;;;;1.60;1.23;;;8.10;98.20;;;;;;4911502;29;20795;-77
2021/11/21 05:16:22;;;;;;;1.60;1.30;;;8.10;98.20;;;;;;4905079;29;20484;-75
2021/11/21 05:18:49;;;;;;;1.70;1.30;;;8.10;98.20;;;;;;4921400;29;20471;-76
2021/11/21 05:21:16;;;;;;;1.60;1.23;;;8.10;98.20;;;;;;4906099;29;20488;-76
2021/11/21 05:23:43;;;;;;;1.60;1.20;;;8.10;98.20;;;;;;4923132;29;20516;-78
2021/11/21 05:26:10;;;;;;;1.60;1.20;;;8.10;98.20;;;;;;4900139;29;20491;-77
2021/11/21 05:28:36;;;;;;;1.60;1.20;;;8.10;98.20;;;;;;4922674;29;20947;-77
2021/11/21 05:31:04;;;;;;;1.60;1.30;;;8.10;98.20;;;;;;4902286;29;20464;-76
2021/11/21 05:33:31;;;;;;;1.60;1.30;;;8.10;98.20;;;;;;4922778;29;20925;-77
2021/11/21 05:35:58;;;;;;;1.60;1.30;;;8.00;98.20;;;;;;4903873;29;20474;-78
2021/11/21 05:38:25;;;;;;;1.60;1.20;;;8.00;98.20;;;;;;4926798;29;20483;-77
2021/11/21 05:40:52;;;;;;;1.63;1.30;;;8.00;98.20;;;;;;4904310;29;20496;-78
2021/11/21 05:43:19;;;;;;;1.60;1.30;;;8.00;98.20;;;;;;4927259;29;21042;-76
2021/11/21 05:45:46;;;;;;;1.60;1.20;;;8.00;98.20;;;;;;4911143;29;20491;-76
2021/11/21 05:48:14;;;;;;;1.60;1.20;;;8.00;98.20;;;;;;4921022;29;20488;-77
2021/11/21 05:50:41;;;;;;;1.60;1.20;;;8.00;98.20;;;;;;4912096;29;20468;-76
2021/11/21 05:53:08;;;;;;;1.60;1.20;;;8.00;98.20;;;;;;4918046;29;20496;-77
2021/11/21 05:55:34;;;;;;;1.70;1.40;;;8.00;98.20;;;;;;4912468;29;20464;-75
2021/11/21 05:58:02;;;;;;;1.63;1.33;;;8.00;98.20;;;;;;4903792;29;20496;-77
2021/11/21 06:00:29;;;;;;;1.60;1.20;;;8.00;98.20;;;;;;4915825;29;21135;-77
2021/11/21 06:02:57;;;;;;;1.60;1.20;;;8.10;98.20;;;;;;4903753;29;20488;-77
2021/11/21 06:05:25;;;;;;;1.63;1.30;;;8.10;98.20;;;;;;4909406;29;20552;-77
2021/11/21 06:07:52;;;;;;;1.70;1.57;;;8.10;98.20;;;;;;4899901;29;20492;-77
2021/11/21 06:10:19;;;;;;;1.60;1.30;;;8.10;98.20;;;;;;4913093;29;20460;-77
2021/11/21 06:12:47;;;;;;;1.67;1.20;;;8.10;98.20;;;;;;4904144;29;20857;-77
2021/11/21 06:15:14;;;;;;;1.63;1.30;;;8.10;98.20;;;;;;4914936;29;20468;-77
2021/11/21 06:17:44;;;;;;;1.60;1.30;;;8.10;98.20;;;;;;4917925;29;20846;-76
2021/11/21 06:20:13;;;;;;;1.60;1.20;;;8.10;98.20;;;;;;4912372;29;20496;-76
2021/11/21 06:22:41;;;;;;;1.60;1.20;;;8.10;98.20;;;;;;4917713;29;20555;-77
2021/11/21 06:25:09;;;;;;;1.63;1.33;;;8.10;98.20;;;;;;4915702;29;20487;-76
2021/11/21 06:27:36;;;;;;;1.60;1.30;;;8.10;98.20;;;;;;4916752;29;20495;-77
2021/11/21 06:30:04;;;;;;;1.67;1.30;;;8.10;98.20;;;;;;4915103;29;20852;-75
2021/11/21 06:32:31;;;;;;;1.60;1.20;;;8.10;98.20;;;;;;4916961;29;20502;-77
2021/11/21 06:34:58;;;;;;;1.60;1.20;;;8.10;98.20;;;;;;4915284;29;20503;-77
2021/11/21 06:37:24;;;;;;;1.60;1.20;;;8.10;98.20;;;;;;4916360;29;21013;-77
2021/11/21 06:39:53;;;;;;;1.60;1.20;;;8.10;98.20;;;;;;4915790;29;20468;-78
2021/11/21 06:42:20;;;;;;;1.60;1.20;;;8.10;98.20;;;;;;4902566;29;20496;-78
2021/11/21 06:44:46;;;;;;;1.60;1.20;;;8.10;98.20;;;;;;4908391;29;21022;-79
2021/11/21 06:47:15;;;;;;;1.60;1.20;;;8.20;98.20;;;;;;4910859;29;20495;-77
2021/11/21 06:49:44;;;;;;;1.60;1.20;;;8.20;98.20;;;;;;4915396;29;20479;-77
2021/11/21 06:52:10;;;;;;;1.63;1.30;;;8.20;98.20;;;;;;4902609;29;20547;-78
2021/11/21 06:54:37;;;;;;;1.60;1.30;;;8.20;98.20;;;;;;4913431;29;20457;-77
2021/11/21 06:57:06;;;;;;;1.60;1.20;;;8.20;98.20;;;;;;4911155;28;20702;-78
2021/11/21 06:59:33;;;;;;;1.60;1.20;;;8.20;98.20;;;;;;4920475;29;20480;-78
2021/11/21 07:02:00;;;;;;;1.63;1.30;;;8.20;98.20;;;;;;4916009;29;20918;-77
2021/11/21 07:04:26;;;;;;;1.60;1.20;;;8.20;98.20;;;;;;4918380;29;20472;-79
2021/11/21 07:06:53;;;;;;;1.60;1.23;;;8.20;98.20;;;;;;4910688;29;20506;-77
2021/11/21 07:09:20;;;;;;;1.70;1.20;;;8.20;98.20;;;;;;4916472;29;20926;-78
2021/11/21 07:11:48;;;;;;;1.60;1.40;;;8.20;98.20;;;;;;4904023;29;20526;-78
2021/11/21 07:14:16;;;;;;;1.60;1.30;;;8.30;98.20;;;;;;4913684;29;20487;-77
2021/11/21 07:16:46;;;;;;;1.60;1.20;;;8.20;98.20;;;;;;4901452;29;20489;-78
2021/11/21 07:19:14;;;;;;;1.60;1.20;;;8.20;98.20;;;;;;4911478;29;20522;-77
2021/11/21 07:21:41;;;;;;;1.60;1.30;;;8.20;98.20;;;;;;4900199;29;20488;-77
2021/11/21 07:24:09;;;;;;;1.60;1.40;;;8.30;98.20;;;;;;4911951;29;20495;-76
2021/11/21 07:26:36;;;;;;;1.60;1.30;;;8.20;98.20;;;;;;4900926;29;20861;-77
2021/11/21 07:29:04;;;;;;;1.60;1.20;;;8.20;98.20;;;;;;4913271;29;20471;-77
2021/11/21 07:31:32;;;;;;;1.60;1.20;;;8.20;98.20;;;;;;4908645;29;20492;-77
2021/11/21 07:34:00;;;;;;;1.60;1.30;;;8.20;98.20;;;;;;4919289;29;21013;-77
2021/11/21 07:36:26;;;;;;;1.60;1.20;;;8.20;98.20;;;;;;4904757;29;20491;-76
2021/11/21 07:38:54;;;;;;;1.67;1.37;;;8.20;98.20;;;;;;4917440;29;20499;-76
2021/11/21 07:41:21;;;;;;;1.60;1.30;;;8.20;98.20;;;;;;4907261;29;20491;-76
2021/11/21 07:43:47;;;;;;;1.60;1.20;;;8.20;98.20;;;;;;4920685;29;20477;-75
2021/11/21 07:46:14;;;;;;;2.23;1.97;;;8.20;98.20;;;;;;4902635;29;20489;-77
2021/11/21 07:48:43;;;;;;;1.60;1.30;;;8.20;98.20;;;;;;4911626;29;20465;-77
2021/11/21 07:51:10;;;;;;;1.60;1.20;;;8.30;98.20;;;;;;4902792;29;20596;-77
2021/11/21 07:53:37;;;;;;;1.60;1.30;;;8.30;98.20;;;;;;4910831;29;20460;-76
2021/11/21 07:56:05;;;;;;;1.60;1.20;;;8.30;98.20;;;;;;4899382;29;21042;-75
2021/11/21 07:58:32;;;;;;;1.60;1.23;;;8.30;98.20;;;;;;4920987;29;20997;-75
2021/11/21 08:00:59;;;;;;;1.70;1.40;;;8.30;98.20;;;;;;4896863;29;20464;-75
2021/11/21 08:03:26;;;;;;;1.60;1.30;;;8.30;98.20;;;;;;4908740;29;20484;-75
2021/11/21 08:05:54;;;;;;;1.60;1.30;;;8.30;98.20;;;;;;4902016;29;20552;-75
2021/11/21 08:08:21;;;;;;;1.60;1.20;;;8.30;98.20;;;;;;4901273;29;20480;-75
2021/11/21 08:10:47;;;;;;;1.60;1.20;;;8.30;98.20;;;;;;4901493;29;20472;-75
2021/11/21 08:13:14;;;;;;;1.60;1.20;;;8.30;98.20;;;;;;4906753;29;20478;-75
2021/11/21 08:15:41;;;;;;;1.60;1.20;;;8.30;98.20;;;;;;4906884;29;22124;-75
2021/11/21 08:18:08;;;;;;;1.60;1.20;;;8.30;98.20;;;;;;4890257;29;20504;-75
2021/11/21 08:20:35;;;;;;;1.63;1.30;;;8.30;98.20;;;;;;4907725;29;21247;-75
2021/11/21 08:23:03;;;;;;;1.60;1.20;;;8.40;98.20;;;;;;4909813;29;20867;-75
2021/11/21 08:25:30;;;;;;;1.60;1.20;;;8.40;98.20;;;;;;4904946;29;20503;-75
2021/11/21 08:27:57;;;;;;;1.60;1.20;;;8.40;98.20;;;;;;4896744;29;20496;-75
2021/11/21 08:30:24;;;;;;;1.60;1.20;;;8.40;98.20;;;;;;4906436;29;20524;-76
2021/11/21 08:32:51;;;;;;;1.70;1.33;;;8.30;98.20;;;;;;4911812;29;20582;-76
2021/11/21 08:35:18;;;;;;;1.60;1.20;;;8.30;98.20;;;;;;4906562;29;20468;-76
2021/11/21 08:37:45;;;;;;;1.80;1.40;;;8.40;98.20;;;;;;4895153;29;21157;-76
2021/11/21 08:40:13;;;;;;;1.60;1.20;;;8.40;98.20;;;;;;4903568;29;20468;-76
2021/11/21 08:42:40;;;;;;;1.60;1.30;;;8.40;98.20;;;;;;4907842;29;20483;-75
2021/11/21 08:45:09;;;;;;;1.60;1.20;;;8.30;98.20;;;;;;4902515;29;20493;-75
2021/11/21 08:47:36;;;;;;;1.60;1.20;;;8.30;98.20;;;;;;4906305;29;20499;-76
2021/11/21 08:50:05;;;;;;;1.60;1.20;;;8.30;98.20;;;;;;4905727;29;20479;-76
2021/11/21 08:52:31;;;;;;;1.60;1.20;;;8.30;98.20;;;;;;4893167;29;21097;-75
2021/11/21 08:54:58;;;;;;;1.60;1.20;;;8.30;98.20;;;;;;4901009;29;20481;-76
2021/11/21 08:57:26;;;;;;;1.60;1.20;;;8.30;98.20;;;;;;4902335;29;20495;-76
2021/11/21 08:59:53;;;;;;;1.60;1.20;;;8.30;98.20;;;;;;4907802;29;20549;-76
2021/11/21 09:02:20;;;;;;;1.63;1.30;;;8.30;98.20;;;;;;4891107;29;20488;-76
2021/11/21 09:04:47;;;;;;;1.60;1.20;;;8.30;98.20;;;;;;4900752;29;20898;-73
2021/11/21 09:07:14;;;;;;;1.60;1.20;;;8.30;98.20;;;;;;4896452;29;20496;-76
2021/11/21 09:09:40;;;;;;;1.60;1.20;;;8.30;98.20;;;;;;4900040;29;20997;-75
2021/11/21 09:12:08;;;;;;;1.60;1.20;;;8.30;98.20;;;;;;4893661;29;21237;-75
2021/11/21 09:14:37;;;;;;;1.60;1.20;;;8.30;98.20;;;;;;4897957;29;20478;-75
2021/11/21 09:17:04;;;;;;;1.60;1.27;;;8.40;98.20;;;;;;4892872;29;20673;-76
2021/11/21 09:19:31;;;;;;;1.60;1.30;;;8.40;98.20;;;;;;4895861;29;20565;-75
2021/11/21 09:21:58;;;;;;;1.60;1.20;;;8.40;98.20;;;;;;4898502;29;20491;-75
2021/11/21 09:24:26;;;;;;;1.70;1.40;;;8.40;98.20;;;;;;4902580;29;20475;-74
2021/11/21 09:26:53;;;;;;;1.60;1.30;;;8.50;98.20;;;;;;4884448;29;20939;-74
2021/11/21 09:29:20;;;;;;;1.60;1.20;;;8.50;98.20;;;;;;4896033;29;20481;-75
2021/11/21 09:31:48;;;;;;;1.60;1.27;;;8.60;98.20;;;;;;4895908;29;20513;-75
2021/11/21 09:34:15;;;;;;;1.60;1.20;;;8.60;98.20;;;;;;4903033;29;20481;-74
2021/11/21 09:36:44;;;;;;;1.63;1.30;;;8.60;98.20;;;;;;4886060;29;20492;-75
2021/11/21 09:39:11;;;;;;;1.60;1.20;;;8.70;98.20;;;;;;4894166;29;20475;-74
2021/11/21 09:41:38;;;;;;;1.60;1.30;;;8.70;98.20;;;;;;4885159;29;20484;-76
2021/11/21 09:44:06;;;;;;;1.60;1.20;;;8.70;98.20;;;;;;4893969;29;21207;-76
2021/11/21 09:46:33;;;;;;;1.70;1.40;;;8.80;98.20;;;;;;4884682;29;20547;-75
2021/11/21 09:49:01;;;;;;;1.60;1.20;;;8.80;98.20;;;;;;4895396;29;21169;-75
2021/11/21 09:51:29;;;;;;;1.60;1.20;;;8.80;98.20;;;;;;4893288;29;21846;-74
2021/11/21 09:53:56;;;;;;;1.60;1.20;;;8.80;98.20;;;;;;4903735;29;20483;-75
2021/11/21 09:56:23;;;;;;;3.63;3.43;;;8.90;98.20;;;;;;4885781;29;20499;-73
2021/11/21 09:58:50;;;;;;;1.60;1.20;;;8.90;98.20;;;;;;4892710;29;20487;-73
2021/11/21 10:01:33;;;;;;;1.60;1.30;;;8.90;98.20;;;;;;4886977;29;21550;-73
2021/11/21 10:04:01;;;;;;;1.60;1.20;;;8.90;98.20;;;;;;4905799;29;20482;-75
2021/11/21 10:06:34;;;;;;;1.70;1.37;;;8.90;98.20;;;;;;4891459;29;20505;-76
2021/11/21 10:09:01;;;;;;;1.60;1.20;;;8.90;98.20;;;;;;4905230;29;20579;-76
2021/11/21 10:11:29;;;;;;;1.60;1.20;;;8.90;98.20;;;;;;4887944;29;20492;-77
2021/11/21 10:14:04;;;;;;;1.60;1.30;;;9.00;98.20;;;;;;4897812;29;20579;-76
2021/11/21 10:16:32;;;;;;;1.67;1.20;;;9.00;98.20;;;;;;4884316;29;20493;-77
2021/11/21 10:19:02;;;;;;;1.60;1.20;;;9.00;98.20;;;;;;4896885;29;21046;-75
2021/11/21 10:21:30;;;;;;;1.60;1.20;;;9.00;98.20;;;;;;4883813;29;20484;-75
2021/11/21 10:24:21;;;;;;;1.60;1.20;;;9.10;98.20;;;;;;4895670;29;20486;-75
2021/11/21 10:27:01;;;;;;;1.60;1.20;;;9.10;98.20;;;;;;4885803;29;20496;-75
2021/11/21 10:29:30;;;;;;;1.70;1.20;;;9.20;98.20;;;;;;4898116;29;20563;-77
2021/11/21 10:31:58;;;;;;;1.60;1.20;;;9.30;98.20;;;;;;4893140;29;20509;-77
2021/11/21 10:34:26;;;;;;;1.60;1.20;;;9.30;98.20;;;;;;4901364;29;20927;-77
2021/11/21 10:36:53;;;;;;;1.60;1.20;;;9.30;98.20;;;;;;4884578;29;20525;-77
2021/11/21 10:39:27;;;;;;;1.60;1.20;;;9.40;98.20;;;;;;4896946;29;20870;-77
2021/11/21 10:41:57;;;;;;;1.60;1.20;;;9.30;98.20;;;;;;4895517;29;20539;-77
2021/11/21 10:44:24;;;;;;;1.60;1.20;;;9.30;98.20;;;;;;4902052;29;21142;-77
2021/11/21 10:46:53;;;;;;;1.60;1.10;;;9.40;98.20;;;;;;4891521;29;20524;-77
2021/11/21 10:49:34;;;;;;;1.60;1.10;;;9.40;98.20;;;;;;4903865;29;20484;-76
2021/11/21 10:52:11;;;;;;;1.63;1.30;;;9.40;98.20;;;;;;4893884;29;20482;-76
2021/11/21 10:54:41;;;;;;;1.60;1.20;;;9.40;98.20;;;;;;4898716;29;20556;-76
2021/11/21 10:57:10;;;;;;;1.67;1.30;;;9.40;98.20;;;;;;4895294;29;20543;-76
2021/11/21 10:59:47;;;;;;;1.60;1.20;;;9.40;98.20;;;;;;4902170;29;20482;-76
2021/11/21 11:02:20;;;;;;;1.60;1.20;;;9.50;98.20;;;;;;4883324;29;20653;-76
2021/11/21 11:05:05;;;;;;;1.60;1.20;;;9.50;98.20;;;;;;4892016;29;21376;-77
2021/11/21 11:07:35;;;;;;;1.60;1.20;;;9.50;98.20;;;;;;4884257;29;21541;-76
2021/11/21 11:10:05;;;;;;;1.60;1.10;;;9.50;98.20;;;;;;4895573;29;20468;-76
2021/11/21 11:12:32;;;;;;;1.60;1.20;;;9.60;98.20;;;;;;4887475;29;20983;-77
2021/11/21 11:14:59;;;;;;;1.60;1.23;;;9.60;98.20;;;;;;4897162;29;20480;-80
2021/11/21 11:17:29;;;;;;;1.60;1.17;;;9.60;98.20;;;;;;4882101;29;20569;-78
2021/11/21 11:19:58;;;;;;;1.60;1.20;;;9.60;98.20;;;;;;4896287;29;21205;-76
2021/11/21 11:22:26;;;;;;;1.60;1.17;;;9.60;98.20;;;;;;4886321;29;20902;-77
2021/11/21 11:24:55;;;;;;;1.60;1.20;;;9.60;98.20;;;;;;4899047;29;20474;-76
2021/11/21 11:27:33;;;;;;;1.60;1.20;;;9.60;98.20;;;;;;4896468;29;20500;-76
2021/11/21 11:30:01;;;;;;;1.60;1.10;;;9.70;98.20;;;;;;4905657;29;20471;-77
2021/11/21 11:32:31;;;;;;;1.63;1.20;;;9.70;98.20;;;;;;4897727;29;20603;-76
2021/11/21 11:35:00;;;;;;;1.60;1.20;;;9.70;98.20;;;;;;4905690;29;20468;-76
2021/11/21 11:37:43;;;;;;;6.60;4.20;;;9.60;98.20;;;;;;4897725;29;20905;-76
2021/11/21 11:40:42;;;;;;;1.60;1.13;;;9.60;98.20;;;;;;4907347;29;20490;-76
2021/11/21 11:43:31;;;;;;;1.60;1.13;;;9.60;98.20;;;;;;4886404;29;20492;-76
2021/11/21 11:46:00;;;;;;;1.63;1.20;;;9.60;98.20;;;;;;4898815;29;20496;-76
2021/11/21 11:48:37;;;;;;;1.67;1.20;;;9.50;98.20;;;;;;4918626;29;20488;-76
2021/11/21 11:51:09;;;;;;;1.60;1.20;;;9.50;98.20;;;;;;4896210;29;20468;-77
2021/11/21 11:53:39;;;;;;;1.60;1.13;;;9.40;98.20;;;;;;4906913;29;21035;-76
2021/11/21 11:56:16;;;;;;;1.60;1.20;;;9.40;98.20;;;;;;4896772;29;20911;-76
2021/11/21 11:58:56;;;;;;;1.60;1.20;;;9.30;98.20;;;;;;4917116;29;20916;-76
2021/11/21 12:01:52;;;;;;;1.60;1.30;;;9.30;98.20;;;;;;4894826;29;20492;-76
2021/11/21 12:04:54;;;;;;;1.60;1.30;;;9.30;98.20;;;;;;4906209;29;20483;-76
2021/11/21 12:07:41;;;;;;;1.60;1.20;;;9.30;98.20;;;;;;4908429;29;20582;-76
2021/11/21 12:10:23;;;;;;;1.60;1.10;;;9.30;98.20;;;;;;4909179;29;20481;-77
2021/11/21 12:13:05;;;;;;;1.60;1.20;;;9.40;98.20;;;;;;4910968;29;20543;-77
2021/11/21 12:15:54;;;;;;;1.60;1.20;;;9.40;98.20;;;;;;4908674;29;21137;-77
2021/11/21 12:18:24;;;;;;;1.60;1.20;;;9.40;98.20;;;;;;4895514;29;20954;-76
2021/11/21 12:20:56;;;;;;;1.60;1.20;;;9.50;98.20;;;;;;4898669;29;20865;-76
2021/11/21 12:23:59;;;;;;;1.60;1.17;;;9.50;98.20;;;;;;4907178;29;20479;-74
2021/11/21 12:26:33;;;;;;;1.60;1.20;;;9.50;98.20;;;;;;4896517;29;20488;-75
2021/11/21 12:29:02;;;;;;;1.60;1.20;;;9.60;98.20;;;;;;4905034;29;21062;-75
2021/11/21 12:31:32;;;;;;;1.60;1.20;;;9.60;98.20;;;;;;4898636;29;20506;-75
2021/11/21 12:34:32;;;;;;;1.60;1.10;;;9.60;98.20;;;;;;4907327;29;20473;-75
2021/11/21 12:37:34;;;;;;;1.60;1.10;;;9.70;98.20;;;;;;4905274;29;20495;-75
2021/11/21 12:40:15;;;;;;;1.60;1.20;;;9.70;98.20;;;;;;4895976;29;20539;-74
2021/11/21 12:42:43;;;;;;;1.60;1.10;;;9.70;98.20;;;;;;4895792;29;20943;-74
2021/11/21 12:45:14;;;;;;;1.60;1.10;;;9.80;98.20;;;;;;4908941;29;20464;-77
2021/11/21 12:47:43;;;;;;;1.67;1.30;;;9.80;98.20;;;;;;4901136;29;20488;-77
2021/11/21 12:50:20;;;;;;;1.60;1.17;;;9.80;98.20;;;;;;4913287;29;21001;-78
2021/11/21 12:52:52;;;;;;;1.60;1.20;;;9.80;98.20;;;;;;4915620;29;20550;-76
2021/11/21 12:55:23;;;;;;;1.60;1.20;;;9.90;98.20;;;;;;4911246;29;20468;-80
2021/11/21 12:57:54;;;;;;;1.60;1.20;;;9.90;98.20;;;;;;4896216;29;20593;-76
2021/11/21 13:00:26;;;;;;;1.60;1.13;;;9.90;98.20;;;;;;4908412;29;20497;-78
2021/11/21 13:03:01;;;;;;;1.60;1.20;;;9.90;98.20;;;;;;4914178;29;20499;-75
2021/11/21 13:05:29;;;;;;;1.60;1.13;;;9.90;98.20;;;;;;4909808;29;20464;-76
2021/11/21 13:07:56;;;;;;;1.60;1.20;;;9.90;98.20;;;;;;4900050;29;20890;-76